Time;durP1;ratioP1;P1;durP2;ratioP2;P2;SDS_P1;SDS_P2;PMS_P1;PMS_P2;Temp;Humidity;BMP_temperature;BMP_pressure;BME280_temperature;BME280_humidity;BME280_pressure;Samples;Min_cycle;Max_cycle;Signal;HPM_P1;HPM_P2
2021/04/18 00:00:46;;;;;;;30.42;23.42;;;;;;;5.22;74.75;96159.13;6349354;22;20077;-91
2021/04/18 00:03:11;;;;;;;31.70;24.13;;;;;;;5.02;74.36;96136.22;6349472;22;20009;-91
2021/04/18 00:05:37;;;;;;;38.15;25.00;;;;;;;5.14;74.27;96148.97;6349479;22;20003;-91
2021/04/18 00:08:02;;;;;;;34.90;25.20;;;;;;;5.09;73.39;96142.16;6349277;22;20294;-91
2021/04/18 00:10:36;;;;;;;35.17;25.27;;;;;;;5.09;73.77;96136.03;6349163;22;19999;-91
2021/04/18 00:13:03;;;;;;;37.75;25.13;;;;;;;5.41;73.40;96170.16;6349209;22;19998;-91
2021/04/18 00:15:29;;;;;;;31.45;24.08;;;;;;;5.77;72.67;96202.25;6349125;22;20006;-90
2021/04/18 00:17:55;;;;;;;33.15;24.23;;;;;;;5.74;72.91;96209.22;6349116;22;20035;-91
2021/04/18 00:20:21;;;;;;;38.65;25.52;;;;;;;5.61;72.83;96199.63;6349382;22;20034;-91
2021/04/18 00:26:08;;;;;;;37.28;27.50;;;;;;;5.60;74.13;96209.66;6376835;22;20008;-91
2021/04/18 00:28:33;;;;;;;35.22;27.75;;;;;;;5.24;73.70;96166.78;6349031;22;20093;-91
2021/04/18 00:30:59;;;;;;;39.72;28.15;;;;;;;4.81;74.85;96114.09;6348797;22;20078;-91
2021/04/18 00:33:25;;;;;;;38.10;28.83;;;;;;;5.00;74.51;96142.78;6349178;22;20317;-91
2021/04/18 00:35:51;;;;;;;37.88;26.25;;;;;;;5.45;74.17;96201.19;6349122;22;20003;-91
2021/04/18 00:38:17;;;;;;;37.00;27.40;;;;;;;5.53;73.62;96205.19;6351424;22;20009;-91
2021/04/18 00:40:42;;;;;;;37.63;28.10;;;;;;;5.09;74.02;96136.03;6354526;22;19999;-91
2021/04/18 00:43:09;;;;;;;39.55;27.08;;;;;;;5.48;73.91;96184.16;6350900;22;20257;-91
2021/04/18 00:45:35;;;;;;;35.45;25.70;;;;;;;5.13;72.70;96148.22;6349047;22;19998;-91
2021/04/18 00:48:01;;;;;;;38.67;27.67;;;;;;;5.52;73.65;96208.31;6349287;22;20006;-91
2021/04/18 00:50:30;;;;;;;39.45;27.48;;;;;;;4.82;73.25;96093.31;6351737;22;20018;-91
2021/04/18 00:52:56;;;;;;;40.42;27.80;;;;;;;5.28;73.28;96164.75;6352680;22;20093;-91
2021/04/18 00:55:25;;;;;;;40.47;26.92;;;;;;;5.55;72.87;96190.56;6349187;22;20006;-91
2021/04/18 00:57:52;;;;;;;39.38;28.17;;;;;;;5.43;73.40;96181.25;6348829;22;20055;-91
2021/04/18 01:00:18;;;;;;;41.05;27.63;;;;;;;4.86;73.97;96102.81;6348811;22;20304;-91
2021/04/18 01:02:43;;;;;;;35.58;26.02;;;;;;;5.41;73.43;96170.91;6349043;22;20001;-91
2021/04/18 01:05:09;;;;;;;38.20;26.20;;;;;;;5.17;73.17;96135.41;6348515;22;20381;-91
2021/04/18 01:07:36;;;;;;;36.08;25.80;;;;;;;5.05;72.51;96132.66;6348624;22;20089;-91
2021/04/18 01:10:03;;;;;;;36.00;26.40;;;;;;;4.72;72.60;96095.09;6348661;22;20095;-91
2021/04/18 01:12:29;;;;;;;42.47;29.30;;;;;;;5.00;73.19;96129.31;6349120;22;20323;-91
2021/04/18 01:14:55;;;;;;;38.78;28.23;;;;;;;5.20;72.91;96150.72;6348672;22;20033;-90
2021/04/18 01:17:21;;;;;;;43.55;29.65;;;;;;;5.13;73.72;96150.16;6348574;22;20286;-91
2021/04/18 01:19:46;;;;;;;42.40;30.05;;;;;;;5.20;73.26;96139.94;6348705;22;19998;-90
2021/04/18 01:22:12;;;;;;;43.83;28.85;;;;;;;5.26;73.31;96137.47;6348957;22;20002;-91
2021/04/18 01:24:37;;;;;;;38.40;27.10;;;;;;;5.15;72.78;96132.38;6348607;22;20007;-91
2021/04/18 01:27:05;;;;;;;42.42;28.42;;;;;;;5.52;73.00;96182.13;6348533;22;20363;-91
2021/04/18 01:29:30;;;;;;;42.50;30.05;;;;;;;4.81;73.93;96084.47;6348261;22;20002;-90
2021/04/18 01:31:55;;;;;;;42.10;28.92;;;;;;;5.22;73.35;96137.59;6348565;22;20416;-90
2021/04/18 01:34:21;;;;;;;43.22;30.17;;;;;;;4.99;72.92;96098.19;6348316;22;20002;-90
2021/04/18 01:36:47;;;;;;;43.47;30.20;;;;;;;4.94;74.27;96104.09;6348554;22;20013;-91
2021/04/18 01:39:13;;;;;;;41.95;29.70;;;;;;;5.07;74.41;96125.69;6348419;22;20362;-90
2021/04/18 01:41:39;;;;;;;42.45;29.70;;;;;;;5.10;73.94;96122.13;6348568;22;20005;-91
2021/04/18 01:44:15;;;;;;;42.25;28.95;;;;;;;5.25;73.64;96168.28;6351478;22;20013;-92
2021/04/18 01:46:42;;;;;;;43.75;30.73;;;;;;;4.83;74.40;96116.34;6352086;22;20063;-91
2021/04/18 01:49:08;;;;;;;46.45;32.45;;;;;;;5.13;73.97;96142.06;6348356;22;20081;-90
2021/04/18 01:51:34;;;;;;;46.05;31.17;;;;;;;4.97;74.26;96116.72;6348444;22;20307;-90
2021/04/18 01:54:00;;;;;;;47.22;30.88;;;;;;;5.35;74.76;96178.00;6348221;22;20317;-90
2021/04/18 01:56:25;;;;;;;50.92;32.75;;;;;;;4.98;74.06;96123.63;6348621;22;20081;-90
2021/04/18 01:58:51;;;;;;;42.63;30.23;;;;;;;4.99;73.63;96129.75;6348443;22;20002;-90
2021/04/18 02:01:16;;;;;;;44.15;30.05;;;;;;;4.71;74.39;96085.53;6348161;22;20267;-90
2021/04/18 02:03:42;;;;;;;39.53;27.05;;;;;;;4.57;73.89;96075.13;6348693;22;20012;-90
2021/04/18 02:06:08;;;;;;;38.65;27.50;;;;;;;5.12;74.02;96173.63;6348257;22;20001;-90
2021/04/18 02:08:33;;;;;;;39.80;28.00;;;;;;;4.58;75.26;96073.94;6348108;22;19998;-90
2021/04/18 02:10:59;;;;;;;42.17;28.85;;;;;;;4.88;74.81;96121.97;6348221;22;20002;-90
2021/04/18 02:13:24;;;;;;;47.17;31.70;;;;;;;4.90;75.24;96110.75;6348410;22;20359;-91
2021/04/18 02:15:50;;;;;;;48.90;31.85;;;;;;;5.05;75.35;96132.66;6348231;22;20002;-90
2021/04/18 02:18:15;;;;;;;46.10;31.55;;;;;;;5.07;75.16;96135.72;6348113;22;19998;-91
2021/04/18 02:20:41;;;;;;;45.88;30.45;;;;;;;4.89;75.60;96114.63;6348209;22;20014;-91
2021/04/18 02:23:06;;;;;;;41.42;29.08;;;;;;;4.85;75.05;96095.91;6348121;22;20033;-91
2021/04/18 02:25:31;;;;;;;44.20;30.23;;;;;;;4.86;75.33;96097.41;6347983;22;19998;-91
2021/04/18 02:27:57;;;;;;;47.03;29.95;;;;;;;4.73;74.81;96072.38;6348232;22;20009;-91
2021/04/18 02:30:23;;;;;;;43.13;30.05;;;;;;;5.09;74.78;96120.63;6347807;22;20097;-91
2021/04/18 02:32:49;;;;;;;42.25;29.77;;;;;;;4.75;74.74;96074.66;6347540;22;20089;-90
2021/04/18 02:35:16;;;;;;;43.70;28.98;;;;;;;5.23;74.39;96152.56;6348319;22;20021;-90
2021/04/18 02:37:42;;;;;;;41.88;29.15;;;;;;;4.96;74.95;96120.59;6348189;22;20010;-91
2021/04/18 02:40:08;;;;;;;43.15;29.60;;;;;;;4.91;75.91;96118.44;6348293;22;20419;-91
2021/04/18 02:42:34;;;;;;;44.10;29.00;;;;;;;4.42;75.65;96054.00;6348350;22;20278;-90
2021/04/18 02:44:59;;;;;;;44.30;29.48;;;;;;;4.55;75.53;96067.50;6348284;22;20005;-90
2021/04/18 02:47:24;;;;;;;42.72;29.63;;;;;;;4.47;75.22;96061.56;6348658;22;20376;-91
2021/04/18 02:49:50;;;;;;;44.90;30.42;;;;;;;5.09;75.77;96152.94;6348062;22;20089;-91
2021/04/18 02:52:16;;;;;;;44.42;29.35;;;;;;;4.69;75.64;96088.66;6348497;22;20081;-90
2021/04/18 02:54:41;;;;;;;43.70;30.45;;;;;;;4.67;76.14;96092.94;6348877;22;20029;-91
2021/04/18 02:57:07;;;;;;;48.47;31.27;;;;;;;4.80;77.23;96104.50;6351577;22;19998;-90
2021/04/18 02:59:32;;;;;;;46.00;30.38;;;;;;;4.48;76.25;96065.00;6351495;22;20017;-90
2021/04/18 03:01:57;;;;;;;43.60;29.88;;;;;;;4.73;76.25;96083.16;6351494;22;20255;-91
2021/04/18 03:04:23;;;;;;;44.53;29.20;;;;;;;4.82;76.10;96091.38;6351381;22;20044;-91
2021/04/18 03:06:49;;;;;;;39.10;26.80;;;;;;;5.17;74.49;96140.06;6351401;22;19999;-91
2021/04/18 03:09:14;;;;;;;39.85;26.20;;;;;;;4.78;75.61;96082.63;6351537;22;20002;-91
2021/04/18 03:11:40;;;;;;;38.60;26.05;;;;;;;4.60;74.74;96048.13;6351360;22;20382;-91
2021/04/18 03:14:05;;;;;;;41.42;26.95;;;;;;;4.69;74.88;96074.44;6351500;22;20021;-90
2021/04/18 03:16:30;;;;;;;39.45;27.33;;;;;;;4.80;75.05;96077.59;6351330;22;20013;-90
2021/04/18 03:18:56;;;;;;;38.92;27.23;;;;;;;4.62;75.32;96050.41;6351219;22;20355;-91
2021/04/18 03:21:21;;;;;;;39.22;28.05;;;;;;;4.87;74.85;96088.16;6351539;22;20431;-91
2021/04/18 03:23:47;;;;;;;37.88;26.25;;;;;;;4.67;75.39;96066.03;6351106;22;20030;-91
2021/04/18 03:26:12;;;;;;;44.40;27.75;;;;;;;4.93;75.98;96104.53;6351048;22;19998;-90
2021/04/18 03:28:38;;;;;;;43.10;27.20;;;;;;;4.50;76.24;96059.94;6351252;22;20021;-90
2021/04/18 03:31:04;;;;;;;41.35;28.25;;;;;;;5.08;76.13;96134.53;6351103;22;20135;-90
2021/04/18 03:33:29;;;;;;;42.40;28.10;;;;;;;4.78;77.12;96098.78;6351018;22;20029;-91
2021/04/18 03:35:55;;;;;;;40.00;27.65;;;;;;;4.81;75.73;96105.25;6351039;22;20067;-90
2021/04/18 03:38:20;;;;;;;41.47;27.98;;;;;;;4.76;76.53;96093.06;6351188;22;20013;-90
2021/04/18 03:40:46;;;;;;;42.67;27.40;;;;;;;5.11;75.95;96141.72;6351031;22;19998;-90
2021/04/18 03:43:12;;;;;;;38.97;26.80;;;;;;;4.79;76.12;96097.59;6351153;22;20014;-90
2021/04/18 03:45:37;;;;;;;36.67;26.25;;;;;;;4.56;74.68;96047.47;6351031;22;20130;-90
2021/04/18 03:48:03;;;;;;;39.95;26.73;;;;;;;5.18;75.30;96133.47;6351193;22;20236;-91
2021/04/18 03:50:29;;;;;;;38.83;26.63;;;;;;;4.69;75.08;96064.44;6351006;22;20054;-91
2021/04/18 03:52:57;;;;;;;39.60;26.98;;;;;;;4.85;74.66;96087.09;6350857;22;20010;-91
2021/04/18 03:55:24;;;;;;;39.83;26.50;;;;;;;4.73;74.71;96064.31;6351056;22;20266;-90
2021/04/18 03:57:49;;;;;;;38.75;26.25;;;;;;;4.87;74.84;96076.63;6350854;22;20089;-90
2021/04/18 04:00:15;;;;;;;42.42;27.10;;;;;;;5.02;75.24;96091.22;6351327;22;20085;-90
2021/04/18 04:02:40;;;;;;;39.83;26.00;;;;;;;4.93;73.98;96083.00;6351120;22;20006;-90
2021/04/18 04:05:07;;;;;;;37.95;24.77;;;;;;;5.21;74.48;96127.22;6351016;22;20029;-90
2021/04/18 04:07:32;;;;;;;40.08;26.45;;;;;;;4.87;75.01;96082.78;6351738;22;20008;-89
2021/04/18 04:09:57;;;;;;;42.03;27.10;;;;;;;4.72;75.24;96076.25;6353720;22;19999;-90
2021/04/18 04:12:24;;;;;;;38.00;26.13;;;;;;;5.19;75.11;96143.06;6348862;22;20012;-89
2021/04/18 04:14:52;;;;;;;40.13;25.95;;;;;;;5.16;75.23;96147.34;6349583;22;20081;-90
2021/04/18 04:17:17;;;;;;;36.03;24.55;;;;;;;4.95;74.92;96102.94;6349209;22;20020;-91
2021/04/18 04:19:43;;;;;;;41.63;26.70;;;;;;;4.72;75.01;96062.81;6349261;22;20033;-91
2021/04/18 04:22:08;;;;;;;41.55;27.13;;;;;;;4.84;75.16;96091.69;6349123;22;20030;-89
2021/04/18 04:24:34;;;;;;;39.50;26.70;;;;;;;4.87;75.03;96093.53;6349085;22;20347;-90
2021/04/18 04:26:59;;;;;;;36.95;24.83;;;;;;;4.89;74.72;96083.09;6349202;22;20002;-90
2021/04/18 04:29:25;;;;;;;36.60;24.75;;;;;;;4.89;74.58;96082.34;6348825;22;20013;-91
2021/04/18 04:31:50;;;;;;;39.20;25.67;;;;;;;5.09;74.37;96101.03;6349017;22;20354;-91
2021/04/18 04:34:16;;;;;;;38.85;24.88;;;;;;;4.76;74.77;96076.94;6349064;22;20010;-91
2021/04/18 04:36:41;;;;;;;38.72;25.65;;;;;;;4.97;75.09;96124.03;6349007;22;20143;-91
2021/04/18 04:39:07;;;;;;;41.30;26.40;;;;;;;4.58;75.38;96073.94;6349026;22;20041;-90
2021/04/18 04:41:32;;;;;;;43.55;27.02;;;;;;;4.63;75.38;96090.31;6349192;22;19998;-91
2021/04/18 04:43:58;;;;;;;38.10;25.80;;;;;;;4.61;75.69;96073.84;6349082;22;20324;-91
2021/04/18 04:46:23;;;;;;;40.70;26.52;;;;;;;4.66;75.58;96067.97;6348507;22;20006;-90
2021/04/18 04:48:49;;;;;;;41.33;26.48;;;;;;;4.91;75.38;96098.84;6349137;22;20002;-90
2021/04/18 04:51:15;;;;;;;40.70;26.85;;;;;;;4.95;75.62;96100.25;6376269;22;20021;-90
2021/04/18 04:53:40;;;;;;;39.63;27.15;;;;;;;4.69;74.72;96064.44;6348755;22;20101;-90
2021/04/18 04:56:06;;;;;;;41.40;27.15;;;;;;;5.13;74.76;96123.22;6348826;22;20002;-91
2021/04/18 04:58:31;;;;;;;39.10;26.52;;;;;;;4.80;74.38;96061.44;6348736;22;20006;-90
2021/04/18 05:00:57;;;;;;;41.35;27.00;;;;;;;4.78;74.56;96066.47;6348698;22;19999;-90
2021/04/18 05:03:25;;;;;;;42.78;27.50;;;;;;;5.32;74.47;96126.94;6349261;22;20006;-89
2021/04/18 05:05:51;;;;;;;42.65;26.88;;;;;;;5.17;74.02;96116.56;6350088;22;20010;-90
2021/04/18 05:08:16;;;;;;;44.50;26.75;;;;;;;5.07;74.37;96084.56;6348607;22;20009;-89
2021/04/18 05:10:42;;;;;;;41.53;27.60;;;;;;;5.06;74.39;96077.66;6348670;22;20010;-90
2021/04/18 05:13:07;;;;;;;41.70;27.77;;;;;;;5.12;74.38;96074.00;6348727;22;20367;-90
2021/04/18 05:15:33;;;;;;;43.40;29.05;;;;;;;5.02;74.41;96079.69;6349470;22;20000;-89
2021/04/18 05:17:58;;;;;;;43.10;27.08;;;;;;;4.88;74.13;96057.38;6351913;22;20089;-90
2021/04/18 05:20:24;;;;;;;40.10;27.08;;;;;;;5.11;74.09;96091.34;6348873;22;20374;-89
2021/04/18 05:22:50;;;;;;;43.28;27.90;;;;;;;5.21;74.03;96089.53;6348598;22;20055;-89
2021/04/18 05:25:15;;;;;;;42.80;28.15;;;;;;;5.44;73.62;96137.75;6348606;22;20363;-90
2021/04/18 05:27:41;;;;;;;46.80;29.27;;;;;;;5.53;73.88;96143.22;6348502;22;20254;-89
2021/04/18 05:30:08;;;;;;;45.28;28.20;;;;;;;5.16;74.70;96092.75;6348436;22;20030;-92
2021/04/18 05:32:34;;;;;;;44.65;28.70;;;;;;;5.23;74.54;96096.00;6348359;22;20002;-91
2021/04/18 05:35:00;;;;;;;43.15;27.75;;;;;;;5.16;74.72;96095.44;6348441;22;20056;-91
2021/04/18 05:43:34;;;;;;;41.42;27.33;;;;;;;5.26;74.23;96100.53;6375989;22;20076;-91
2021/04/18 05:45:59;;;;;;;42.05;26.08;;;;;;;5.74;75.27;96149.19;6348620;22;20006;-91
2021/04/18 05:48:25;;;;;;;40.97;25.80;;;;;;;5.55;76.25;96096.25;6348289;22;20093;-92
2021/04/18 05:50:50;;;;;;;44.95;26.75;;;;;;;5.58;73.24;96093.44;6348450;22;20003;-92
2021/04/18 05:53:16;;;;;;;45.60;27.38;;;;;;;5.14;73.49;96055.50;6348085;22;20071;-90
2021/04/18 05:55:42;;;;;;;43.10;27.58;;;;;;;5.71;73.70;96153.50;6375664;22;20010;-91
2021/04/18 05:58:10;;;;;;;40.67;26.95;;;;;;;5.16;73.94;96074.66;6348304;22;20085;-90
2021/04/18 06:00:35;;;;;;;43.75;27.02;;;;;;;5.48;73.75;96127.59;6348133;22;19994;-90
2021/04/18 06:03:01;;;;;;;45.03;28.00;;;;;;;4.99;74.05;96068.59;6348202;22;20028;-89
2021/04/18 06:05:26;;;;;;;48.80;28.33;;;;;;;5.59;74.43;96153.47;6347743;22;20009;-92
2021/04/18 06:07:52;;;;;;;43.75;28.15;;;;;;;5.03;74.31;96070.44;6348057;22;20006;-91
2021/04/18 06:10:17;;;;;;;44.97;28.45;;;;;;;5.10;74.84;96067.53;6348035;22;20007;-91
2021/04/18 06:12:43;;;;;;;44.08;27.95;;;;;;;5.34;74.38;96103.03;6348263;22;20089;-91
2021/04/18 06:15:09;;;;;;;46.88;27.95;;;;;;;5.26;74.23;96081.66;6348360;22;19998;-92
2021/04/18 06:17:35;;;;;;;42.30;27.42;;;;;;;5.63;74.64;96144.09;6348095;22;20275;-92
2021/04/18 06:20:00;;;;;;;45.03;28.40;;;;;;;5.51;74.97;96148.31;6348122;22;19998;-91
2021/04/18 06:22:28;;;;;;;45.45;27.48;;;;;;;5.03;75.39;96059.66;6351785;22;19998;-92
2021/04/18 06:24:53;;;;;;;44.20;28.10;;;;;;;5.22;75.54;96082.97;6350425;22;20480;-90
2021/04/18 06:27:18;;;;;;;44.15;27.20;;;;;;;5.77;74.68;96148.34;6347986;22;20006;-90
2021/04/18 06:29:44;;;;;;;44.10;28.02;;;;;;;5.33;73.78;96091.50;6347561;22;20350;-90
2021/04/18 06:32:10;;;;;;;58.42;37.80;;;;;;;5.31;74.28;96098.50;6347855;22;20366;-91
2021/04/18 06:34:36;;;;;;;56.35;35.10;;;;;;;5.36;73.01;96112.19;6347553;22;20039;-90
2021/04/18 06:37:02;;;;;;;52.80;35.30;;;;;;;5.18;73.92;96066.16;6347895;22;20006;-91
2021/04/18 06:39:28;;;;;;;45.83;30.90;;;;;;;5.24;73.54;96080.59;6347306;22;20077;-90
2021/04/18 06:41:57;;;;;;;44.67;29.63;;;;;;;5.67;73.79;96155.53;6346040;22;20119;-90
2021/04/18 06:44:23;;;;;;;45.78;27.88;;;;;;;5.35;72.93;96096.44;6344168;22;20060;-89
2021/04/18 06:46:49;;;;;;;49.70;30.05;;;;;;;5.39;73.57;96103.25;6347704;22;20002;-90
2021/04/18 06:49:15;;;;;;;47.40;30.00;;;;;;;5.28;73.06;96078.56;6347736;22;20267;-90
2021/04/18 06:51:40;;;;;;;44.30;29.80;;;;;;;5.68;72.98;96142.81;6347788;22;20085;-90
2021/04/18 06:54:07;;;;;;;42.50;29.77;;;;;;;5.80;73.00;96150.16;6347446;22;20021;-89
2021/04/18 06:56:33;;;;;;;41.17;28.50;;;;;;;5.51;73.15;96105.19;6347716;22;20070;-92
2021/04/18 06:59:00;;;;;;;45.53;30.42;;;;;;;6.03;72.23;96157.97;6347038;22;20006;-89
2021/04/18 07:01:26;;;;;;;40.33;28.60;;;;;;;5.47;71.94;96074.16;6349923;22;20309;-89
2021/04/18 07:04:19;;;;;;;42.65;29.05;;;;;;;5.82;73.03;96088.50;6348128;22;20007;-89
2021/04/18 07:06:55;;;;;;;43.40;28.80;;;;;;;6.26;71.81;96159.56;6347567;22;20062;-89
2021/04/18 07:09:22;;;;;;;41.67;28.95;;;;;;;5.75;71.96;96078.69;6347332;22;20081;-89
2021/04/18 07:11:53;;;;;;;41.10;28.38;;;;;;;5.79;71.84;96068.53;6347589;22;20002;-89
2021/04/18 07:14:41;;;;;;;47.22;30.17;;;;;;;6.39;70.69;96158.78;6347575;22;20267;-89
2021/04/18 07:17:09;;;;;;;41.95;27.38;;;;;;;6.15;70.82;96101.75;6347375;22;20025;-90
2021/04/18 07:19:36;;;;;;;48.83;30.60;;;;;;;6.55;70.01;96151.31;6347358;22;20003;-89
2021/04/18 07:22:03;;;;;;;40.30;27.88;;;;;;;6.70;70.79;96156.97;6347328;22;20002;-89
2021/04/18 07:24:30;;;;;;;38.38;26.75;;;;;;;6.47;71.40;96114.97;6346384;22;20371;-90
2021/04/18 07:27:08;;;;;;;36.15;24.52;;;;;;;6.21;70.34;96089.22;6347488;22;20270;-91
2021/04/18 07:29:34;;;;;;;35.88;25.52;;;;;;;6.38;71.01;96090.59;6347719;22;20271;-89
2021/04/18 07:32:15;;;;;;;35.55;25.75;;;;;;;6.21;70.69;96064.97;6347806;22;20002;-90
2021/04/18 07:34:41;;;;;;;35.85;25.48;;;;;;;6.69;70.17;96133.88;6375092;22;20337;-89
2021/04/18 07:37:06;;;;;;;34.25;23.70;;;;;;;6.86;69.71;96153.38;6347625;22;20002;-90
2021/04/18 07:39:48;;;;;;;34.30;23.95;;;;;;;6.71;71.45;96109.16;6346659;22;20428;-90
2021/04/18 07:42:29;;;;;;;31.45;23.35;;;;;;;6.99;68.67;96153.34;6348024;22;20252;-89
2021/04/18 07:44:56;;;;;;;30.15;21.85;;;;;;;6.93;69.66;96128.84;6349531;22;20002;-90
2021/04/18 07:47:22;;;;;;;48.63;24.63;;;;;;;7.15;68.96;96142.34;6349030;22;20316;-90
2021/04/18 07:49:48;;;;;;;29.73;21.90;;;;;;;7.01;68.55;96108.50;6376849;22;20059;-89
2021/04/18 07:52:16;;;;;;;31.83;21.80;;;;;;;7.03;69.90;96087.22;6349152;22;20010;-89
2021/04/18 07:54:43;;;;;;;29.08;21.30;;;;;;;7.04;68.15;96083.31;6348757;22;20395;-89
2021/04/18 07:57:09;;;;;;;29.50;21.25;;;;;;;7.30;66.91;96124.44;6348907;22;20275;-89
2021/04/18 07:59:34;;;;;;;28.95;21.20;;;;;;;7.07;66.96;96081.66;6349892;22;20005;-90
2021/04/18 08:02:00;;;;;;;28.17;20.50;;;;;;;7.45;68.07;96121.22;6348995;22;20007;-90
2021/04/18 08:04:27;;;;;;;28.15;20.10;;;;;;;7.37;67.73;96101.81;6349163;22;20028;-89
2021/04/18 08:06:53;;;;;;;27.45;21.48;;;;;;;7.19;65.69;96088.97;6348970;22;20010;-88
2021/04/18 08:09:24;;;;;;;29.65;20.30;;;;;;;7.90;67.02;96142.31;6349065;22;20374;-90
2021/04/18 08:12:22;;;;;;;26.13;19.58;;;;;;;7.95;65.09;96141.75;6376466;22;20444;-89
2021/04/18 08:15:08;;;;;;;25.38;18.08;;;;;;;7.75;65.66;96082.63;6287121;22;20010;-90
2021/04/18 08:17:33;;;;;;;20.90;16.90;;;;;;;8.04;62.85;96103.91;6348490;22;20007;-90
2021/04/18 08:20:01;;;;;;;22.30;17.10;;;;;;;8.40;63.63;96143.84;6348817;22;20002;-89
2021/04/18 08:23:05;;;;;;;21.50;16.75;;;;;;;8.34;61.63;96136.75;6348472;22;20091;-88
2021/04/18 08:25:31;;;;;;;23.30;18.05;;;;;;;8.39;61.72;96133.47;6372878;22;20530;-88
2021/04/18 08:28:06;;;;;;;24.80;17.63;;;;;;;8.30;62.19;96111.78;6348129;22;20008;-88
2021/04/18 08:31:02;;;;;;;24.20;16.98;;;;;;;8.73;61.83;96132.47;6348202;22;20033;-88
2021/04/18 08:33:40;;;;;;;24.83;17.63;;;;;;;8.80;62.45;96134.91;6351332;22;20039;-88
2021/04/18 08:36:21;;;;;;;23.17;16.63;;;;;;;8.84;61.57;96140.91;6348059;22;20002;-88
2021/04/18 08:38:49;;;;;;;23.98;16.75;;;;;;;8.69;61.49;96104.06;6347921;22;20002;-88
2021/04/18 08:41:16;;;;;;;22.23;16.83;;;;;;;8.66;62.13;96108.41;6348176;22;19998;-88
2021/04/18 08:43:46;;;;;;;21.42;15.68;;;;;;;8.91;61.03;96132.47;6348350;22;20393;-88
2021/04/18 08:46:13;;;;;;;20.73;15.68;;;;;;;8.62;59.14;96097.72;6347992;22;20006;-89
2021/04/18 08:48:39;;;;;;;20.67;16.42;;;;;;;8.57;60.13;96102.97;6348758;22;20259;-89
2021/04/18 08:51:07;;;;;;;20.23;14.88;;;;;;;8.74;59.86;96130.53;6348474;22;20093;-89
2021/04/18 08:54:00;;;;;;;18.88;15.15;;;;;;;8.53;59.88;96100.44;6347926;22;20101;-88
2021/04/18 08:56:49;;;;;;;18.52;15.13;;;;;;;8.47;59.61;96123.88;6347999;22;20311;-89
2021/04/18 08:59:16;;;;;;;20.95;14.82;;;;;;;8.48;60.90;96081.31;6348080;22;20018;-89
2021/04/18 09:02:12;;;;;;;20.13;15.75;;;;;;;9.03;60.41;96119.97;6348289;22;20012;-88
2021/04/18 09:04:44;;;;;;;18.13;13.85;;;;;;;8.91;58.31;96124.34;6348789;22;19998;-89
2021/04/18 09:07:13;;;;;;;16.92;13.60;;;;;;;8.68;58.71;96094.41;6348244;22;20009;-88
2021/04/18 09:09:39;;;;;;;16.50;12.70;;;;;;;8.59;57.88;96060.72;6347742;22;20447;-88
2021/04/18 09:12:11;;;;;;;15.68;12.50;;;;;;;8.94;57.29;96092.91;6348365;22;20267;-88
2021/04/18 09:14:48;;;;;;;16.92;13.50;;;;;;;9.13;58.51;96083.56;6347820;22;20093;-89
2021/04/18 09:17:22;;;;;;;15.95;11.02;;;;;;;9.69;57.64;96119.41;6348350;22;20003;-89
2021/04/18 09:19:52;;;;;;;19.58;12.40;;;;;;;10.05;58.24;96118.50;6376025;22;19998;-89
2021/04/18 09:22:23;;;;;;;16.25;12.55;;;;;;;9.64;56.39;96120.03;6348166;22;20085;-89
2021/04/18 09:24:52;;;;;;;15.05;11.35;;;;;;;9.98;56.89;96111.47;6345334;22;20363;-88
2021/04/18 09:27:26;;;;;;;17.30;12.52;;;;;;;9.89;55.23;96108.78;6348393;22;20402;-90
2021/04/18 09:29:59;;;;;;;16.02;12.07;;;;;;;9.54;55.43;96056.22;6337812;22;20017;-91
2021/04/18 09:32:30;;;;;;;21.50;15.30;;;;;;;9.60;57.18;96057.84;6348061;22;20081;-88
2021/04/18 09:34:57;;;;;;;16.45;12.68;;;;;;;9.58;55.79;96043.97;6348181;22;20002;-87
2021/04/18 09:37:34;;;;;;;15.80;12.07;;;;;;;9.68;54.22;96067.13;6375577;22;20010;-88
2021/04/18 09:40:12;;;;;;;14.05;10.75;;;;;;;9.77;53.71;96082.63;6348086;22;20047;-88
2021/04/18 09:42:44;;;;;;;13.73;10.55;;;;;;;9.91;55.93;96062.22;6348085;22;20447;-88
2021/04/18 09:45:13;;;;;;;12.80;10.35;;;;;;;10.46;53.59;96095.25;6347939;22;20002;-87
2021/04/18 09:47:40;;;;;;;15.65;11.25;;;;;;;10.60;50.96;96090.31;6347989;22;20006;-88
2021/04/18 09:50:16;;;;;;;13.35;10.07;;;;;;;10.24;51.02;96037.78;6347970;22;20090;-89
2021/04/18 09:52:42;;;;;;;12.23;9.63;;;;;;;10.76;52.57;96087.19;6347418;22;20018;-89
2021/04/18 09:55:07;;;;;;;11.75;9.45;;;;;;;10.69;52.90;96069.28;6347951;22;20155;-89
2021/04/18 09:57:45;;;;;;;10.02;8.35;;;;;;;10.78;49.59;96090.19;6347753;22;20383;-89
2021/04/18 10:00:15;;;;;;;9.75;8.35;;;;;;;10.64;49.60;96083.50;6347941;22;19998;-88
2021/04/18 10:02:41;;;;;;;10.40;8.88;;;;;;;10.94;50.17;96087.03;6348093;22;20034;-88
2021/04/18 10:05:13;;;;;;;11.38;9.30;;;;;;;10.35;51.28;96029.88;6347451;22;20006;-89
2021/04/18 10:07:40;;;;;;;9.05;7.43;;;;;;;10.88;50.65;96083.47;6347976;22;19998;-88
2021/04/18 10:10:07;;;;;;;10.32;8.02;;;;;;;11.21;51.28;96079.84;6347805;22;20006;-88
2021/04/18 10:12:50;;;;;;;9.32;7.80;;;;;;;11.33;51.94;96067.19;6375220;22;20032;-88
2021/04/18 10:15:18;;;;;;;9.50;6.45;;;;;;;11.14;48.58;96025.88;6345722;22;20092;-88
2021/04/18 10:17:43;;;;;;;7.35;5.88;;;;;;;11.18;50.22;96023.69;6347814;22;20139;-88
2021/04/18 10:20:09;;;;;;;7.40;5.93;;;;;;;10.99;48.60;96034.75;6348320;22;20044;-88
2021/04/18 10:23:11;;;;;;;6.65;5.95;;;;;;;11.31;49.68;96080.53;6347725;22;20002;-89
2021/04/18 10:25:38;;;;;;;7.25;5.43;;;;;;;10.93;49.28;96031.19;6347868;22;20021;-88
2021/04/18 10:28:05;;;;;;;7.05;5.47;;;;;;;11.24;51.88;96076.22;6347729;22;20084;-89
2021/04/18 10:30:31;;;;;;;5.32;4.05;;;;;;;11.34;48.13;96074.88;6347688;22;20082;-89
2021/04/18 10:32:58;;;;;;;5.20;4.70;;;;;;;11.17;49.60;96069.16;6374922;22;20009;-88
2021/04/18 10:35:24;;;;;;;5.90;5.25;;;;;;;10.88;50.08;96034.56;6347724;22;20071;-88
2021/04/18 10:37:50;;;;;;;5.22;4.38;;;;;;;11.19;49.51;96079.59;6347780;22;20030;-89
2021/04/18 10:40:19;;;;;;;5.80;4.80;;;;;;;10.61;49.78;96005.69;6347902;22;20263;-90
2021/04/18 10:42:44;;;;;;;6.03;4.72;;;;;;;10.52;48.36;96003.03;6347813;22;20010;-90
2021/04/18 10:45:12;;;;;;;5.65;4.97;;;;;;;10.93;50.81;96063.06;6347564;22;20006;-89
2021/04/18 10:47:37;;;;;;;5.97;5.38;;;;;;;10.59;50.84;96012.78;6347676;22;20270;-88
2021/04/18 10:50:04;;;;;;;6.15;5.55;;;;;;;10.63;49.85;96014.09;6347579;22;20002;-88
2021/04/18 10:52:30;;;;;;;5.82;5.15;;;;;;;10.82;50.52;96008.53;6347210;22;20322;-88
2021/04/18 10:54:56;;;;;;;6.68;5.32;;;;;;;10.92;50.15;96001.75;6347597;22;20002;-89
2021/04/18 10:57:22;;;;;;;6.93;5.75;;;;;;;11.36;48.02;96060.84;6347138;22;20240;-89
2021/04/18 10:59:48;;;;;;;6.57;5.72;;;;;;;10.98;48.41;95989.03;6347011;22;19998;-87
2021/04/18 11:02:13;;;;;;;6.07;5.45;;;;;;;10.95;47.82;95979.09;6347665;22;20034;-89
2021/04/18 11:04:38;;;;;;;6.00;5.40;;;;;;;11.70;45.52;96018.56;6347551;22;20350;-89
2021/04/18 11:07:04;;;;;;;8.50;5.45;;;;;;;11.85;46.06;95997.56;6374868;22;20314;-89
2021/04/18 11:09:30;;;;;;;6.43;5.40;;;;;;;12.54;45.66;96063.28;6347382;22;20009;-89
2021/04/18 11:11:55;;;;;;;6.10;5.03;;;;;;;12.62;42.32;96011.84;6347277;22;20002;-90
2021/04/18 11:14:22;;;;;;;5.28;4.25;;;;;;;13.10;43.60;96025.69;6347399;22;20026;-91
2021/04/18 11:16:48;;;;;;;5.18;3.67;;;;;;;13.46;44.25;96026.28;6376272;22;19998;-89
2021/04/18 11:19:13;;;;;;;4.35;3.53;;;;;;;13.70;39.93;96009.59;6349215;22;20378;-90
2021/04/18 11:21:39;;;;;;;3.95;3.55;;;;;;;13.43;39.29;95983.63;6349320;22;19998;-90
2021/04/18 11:24:05;;;;;;;6.32;5.18;;;;;;;13.53;38.93;95998.53;6349651;22;20106;-90
2021/04/18 11:26:31;;;;;;;5.93;4.82;;;;;;;13.97;41.86;96002.81;6349223;22;20006;-90
2021/04/18 11:28:57;;;;;;;6.25;5.15;;;;;;;14.03;41.52;96007.06;6349406;22;20389;-90
2021/04/18 11:31:22;;;;;;;6.38;5.35;;;;;;;13.89;42.88;96000.53;6349363;22;19999;-90
2021/04/18 11:33:48;;;;;;;6.00;4.97;;;;;;;13.77;43.74;96030.97;6349247;22;19998;-90
2021/04/18 11:36:15;;;;;;;6.55;5.20;;;;;;;13.88;38.95;96039.97;6349233;22;20002;-90
2021/04/18 11:38:41;;;;;;;6.05;5.10;;;;;;;13.42;39.49;95982.09;6349370;22;20029;-89